KGRR

Gerald R. Ford International Airport

Airport
ICAO code
KGRR
IATA Code
GRR
Summary
ICAO Region
NAM
ICAO Territory
Location

Grand Rapids, Michigan

Serving
Grand Rapids
Elevation
794 ft
Coordinates
42° 53' 5" N , 85° 31' 46" W
KCC
Airport CFIT
Altimeter Temperature Error Correction
Airport LOS
Parallel Runway Operation
Airport WX
Cumulonimbus
Metar
KGRR 040653Z AUTO 18012G20KT 10SM CLR 14/08 A2991 RMK AO2 SLP129 T01390078

 

Gerald R. Ford International Airport is a commercial airport located approximately 13 nm southeast of Grand Rapids, in Cascade Township, Michigan.

Humid Continental climate (Köppen climate classification Dfb) - Variable weather patterns and a large seasonal temperature variance. Summers are often warm and humid with frequent thunderstorms and winters can be very cold with frequent snowfall and persistent snow cover. Lake effect snowfall is frequent due to the proximity of Lake Michigan.

Airport map

Aerial View

SKYbrary Partners:

Safety knowledge contributed by: